Belding, MI (48809)

3:31 PM EDT on April 25, 2017 (GMT -0400)
| | Change Station
Active Advisory: Flood Advisory Active Notice: Flood Advisory

Elev -9999 ft 0.00 °N, 0.00 °E | Updated 10 minutes ago

Mostly Cloudy
Mostly Cloudy
°F
Feels Like °F
N
Wind Variable Wind from North
Gusts mph

Today
High -- | Low -- °F
--% Chance of Precip.
Yesterday
High -- | Low -- °F
Precip. -- in
Pressure 29.73 in
Visibility 10.0 miles
Clouds Mostly Cloudy 3700 ft
Dew Point Not available.
Humidity Not available.
Rainfall --
Snow Depth Not available.
6:42 AM 8:35 PM
Waning Crescent, 1% visible
METAR KY70 251914Z AUTO 13008G16KT 10SM BKN037 21/12 A2973 RMK AO2 T02070116
Pressure 29.73 in
Visibility 10.0 miles
Clouds Mostly Cloudy 3700 ft
Dew Point Not available.
Humidity Not available.
Rainfall --
Snow Depth Not available.
6:42 AM 8:35 PM
Waning Crescent, 1% visible
METAR KY70 251914Z AUTO 13008G16KT 10SM BKN037 21/12 A2973 RMK AO2 T02070116

Get Your Daily Forecast Email!

Thanks for signing up!

Be on the lookout for a verification email in your inbox.

You'll start receiving severe weather alerts in your inbox..

×

10-Day Weather Forecast

Almanac

Astronomy

Apr. 25, 2017 Rise Set
Actual Time
Civil Twilight
Nautical Twilight
Astronomical Twilight
Moon
Length of Visible Light
Length of Day
Tomorrow will be .
, % of the Moon is Illuminated

Today's Extremes

State Highs State Lows

Community

WunderPhotos

WunderBlog® & News

Nearby

Air Quality

  Air Quality AQ Index Pollutant
Not available.

Snow Depth

Station Depth Elevation

Earthquake Activity

City Distance Mag. Time & Date
Minimum magnitude displayed is 2.5.

Coastal Water Temperatures

Place Temperature

Stations

Nearby Weather Stations

Station Location Temp. Windchill Dew Point Humidity Wind Precip. Elev Updated Type
                   

Watches & Warnings

Flood Advisory
Issued: 9:23 AM EDT Apr. 25, 2017 – National Weather Service

The flood advisory continues for
the Grand River at Ionia
* until late Saturday night.
* At 08 am Tuesday the stage was 15.7 feet.
* Bankfull stage is 13.5 feet.
* Flood stage is 21.0 feet.
* Forecast, the river will continue to fall.
* Impact, at 16.0 feet... expect extensive lowland overflow to occur.


Lat... Lon 4297 8524 4303 8488 4296 8499 4290 8521